Time;durP1;ratioP1;P1;durP2;ratioP2;P2;SDS_P1;SDS_P2;PMS_P1;PMS_P2;Temp;Humidity;BMP_temperature;BMP_pressure;BME280_temperature;BME280_humidity;BME280_pressure;Samples;Min_cycle;Max_cycle;Signal;HPM_P1;HPM_P2
2023/03/21 00:01:42;;;;;;;19.17;10.80;;;;;;;10.85;81.94;101444.72;3610473;39;20078;-67
2023/03/21 00:04:08;;;;;;;19.02;10.90;;;;;;;10.78;82.47;101427.16;3609372;39;20349;-67
2023/03/21 00:06:35;;;;;;;15.88;10.48;;;;;;;10.81;82.64;101436.88;3609269;39;20054;-67
2023/03/21 00:09:00;;;;;;;17.08;9.88;;;;;;;10.80;82.26;101441.41;3610520;39;20047;-67
2023/03/21 00:11:26;;;;;;;19.65;9.85;;;;;;;10.62;82.17;101408.28;3606990;39;20051;-67
2023/03/21 00:13:52;;;;;;;14.25;9.60;;;;;;;10.74;82.02;101414.81;3591497;39;20090;-67
2023/03/21 00:16:18;;;;;;;18.80;9.73;;;;;;;10.82;82.60;101428.75;3609862;39;20059;-67
2023/03/21 00:18:51;;;;;;;14.65;9.65;;;;;;;10.58;81.71;101382.50;3609653;39;20097;-67
2023/03/21 00:21:20;;;;;;;13.18;8.95;;;;;;;10.83;81.68;101421.53;3607901;39;20048;-68
2023/03/21 00:23:47;;;;;;;15.63;9.48;;;;;;;10.81;81.66;101410.84;3601220;39;20181;-68
2023/03/21 00:26:13;;;;;;;13.35;9.48;;;;;;;10.74;81.53;101390.63;3609808;39;20423;-68
2023/03/21 00:28:41;;;;;;;17.00;9.68;;;;;;;10.88;81.65;101414.09;3610812;39;20393;-68
2023/03/21 00:31:09;;;;;;;14.82;9.48;;;;;;;10.91;81.07;101409.44;3599400;39;20143;-67
2023/03/21 00:33:37;;;;;;;14.50;9.43;;;;;;;10.90;80.58;101404.97;3606526;39;20085;-67
2023/03/21 00:36:04;;;;;;;12.90;8.85;;;;;;;10.89;80.83;101403.25;3606616;39;20050;-67
2023/03/21 00:38:30;;;;;;;13.32;9.90;;;;;;;10.93;80.88;101404.81;3609336;39;20127;-68
2023/03/21 00:40:56;;;;;;;13.82;9.40;;;;;;;10.95;80.08;101399.38;3604285;39;20084;-67
2023/03/21 00:43:28;;;;;;;15.98;9.02;;;;;;;10.97;79.92;101393.88;3609320;39;20074;-67
2023/03/21 00:45:57;;;;;;;14.60;8.30;;;;;;;10.98;80.60;101396.50;3611993;39;20468;-68
2023/03/21 00:48:24;;;;;;;12.98;8.50;;;;;;;10.99;80.45;101392.00;3609175;39;20067;-68
2023/03/21 00:50:53;;;;;;;13.20;8.07;;;;;;;10.98;79.81;101384.88;3609807;39;20065;-68
2023/03/21 00:53:20;;;;;;;13.25;8.23;;;;;;;11.01;79.47;101379.34;3607238;39;20054;-68
2023/03/21 00:55:46;;;;;;;15.27;7.80;;;;;;;11.00;79.18;101383.81;3608725;39;21790;-68
2023/03/21 00:58:12;;;;;;;14.02;8.18;;;;;;;10.99;78.66;101373.16;3608666;39;20061;-67
2023/03/21 01:00:38;;;;;;;12.20;7.47;;;;;;;10.95;78.52;101364.41;3607724;39;20055;-67
2023/03/21 01:03:07;;;;;;;13.75;7.80;;;;;;;11.02;78.61;101373.00;3609414;39;20058;-67
2023/03/21 01:08:27;;;;;;;12.05;7.25;;;;;;;11.06;78.58;101361.97;3609880;39;20065;-67
2023/03/21 01:10:54;;;;;;;11.38;7.07;;;;;;;11.09;78.66;101360.94;3606546;39;20051;-67
2023/03/21 01:13:23;;;;;;;14.27;7.13;;;;;;;11.07;78.04;101352.09;3608877;39;20120;-67
2023/03/21 01:15:55;;;;;;;14.45;7.00;;;;;;;11.02;78.06;101340.72;3608846;39;20127;-67
2023/03/21 01:18:27;;;;;;;14.30;7.03;;;;;;;11.08;77.76;101353.84;3608513;39;20062;-66
2023/03/21 01:20:57;;;;;;;11.27;6.45;;;;;;;11.08;77.89;101351.16;3599996;39;20051;-67
2023/03/21 01:23:26;;;;;;;12.73;6.82;;;;;;;11.04;77.91;101341.50;3608304;39;20059;-68
2023/03/21 01:25:54;;;;;;;12.13;6.93;;;;;;;11.08;77.34;101346.63;3612416;39;20052;-68
2023/03/21 01:28:20;;;;;;;12.43;6.45;;;;;;;10.99;77.08;101333.69;3609033;39;20296;-67
2023/03/21 01:30:49;;;;;;;11.57;7.15;;;;;;;11.10;77.15;101343.84;3608814;39;20412;-68
2023/03/21 01:33:17;;;;;;;15.38;7.18;;;;;;;11.11;76.75;101337.53;3609266;39;20062;-68
2023/03/21 01:35:43;;;;;;;10.82;6.75;;;;;;;11.11;77.21;101343.75;3606673;39;20381;-68
2023/03/21 01:38:10;;;;;;;14.52;7.07;;;;;;;10.88;77.02;101302.00;3604070;39;20106;-67
2023/03/21 01:40:36;;;;;;;9.82;6.60;;;;;;;10.98;76.92;101305.06;3607274;39;20125;-68
2023/03/21 01:43:14;;;;;;;13.15;7.05;;;;;;;11.14;77.35;101323.91;3607748;39;20054;-67
2023/03/21 01:46:28;;;;;;;13.43;6.50;;;;;;;11.12;76.89;101331.16;3605975;39;20529;-68
2023/03/21 01:49:03;;;;;;;13.50;6.95;;;;;;;11.09;77.21;101323.28;3608683;39;20101;-67
2023/03/21 01:51:36;;;;;;;13.50;7.18;;;;;;;11.08;77.15;101332.31;3609521;39;20070;-67
2023/03/21 01:54:08;;;;;;;9.88;6.47;;;;;;;11.07;77.04;101325.19;3606603;39;20389;-68
2023/03/21 01:56:39;;;;;;;13.63;6.53;;;;;;;11.03;77.80;101329.00;3610450;39;20070;-67
2023/03/21 01:59:13;;;;;;;11.02;6.80;;;;;;;10.98;77.57;101321.19;3608305;39;20434;-67
2023/03/21 02:01:41;;;;;;;11.65;6.75;;;;;;;11.04;77.80;101318.16;3608155;39;20050;-68
2023/03/21 02:04:08;;;;;;;11.80;6.82;;;;;;;11.04;78.11;101315.47;3608261;39;20091;-67
2023/03/21 02:07:12;;;;;;;12.35;6.95;;;;;;;11.05;78.20;101305.56;3609031;39;20066;-67
2023/03/21 02:09:47;;;;;;;14.73;6.70;;;;;;;11.06;77.57;101313.53;3597841;39;20051;-67
2023/03/21 02:12:15;;;;;;;11.82;6.57;;;;;;;11.06;77.79;101302.78;3609477;39;20119;-67
2023/03/21 02:14:42;;;;;;;12.55;6.38;;;;;;;11.06;77.93;101300.09;3598405;39;20465;-68
2023/03/21 02:17:19;;;;;;;14.23;6.50;;;;;;;11.04;77.28;101303.84;3602671;39;20098;-68
2023/03/21 02:20:24;;;;;;;11.50;6.50;;;;;;;11.01;77.92;101302.19;3605094;39;20062;-68
2023/03/21 02:23:14;;;;;;;11.63;6.32;;;;;;;11.01;77.43;101287.88;3608340;39;20062;-67
2023/03/21 02:26:01;;;;;;;12.68;6.95;;;;;;;11.01;77.66;101287.88;3607265;39;20047;-67
2023/03/21 02:29:16;;;;;;;13.82;6.95;;;;;;;10.98;77.95;101283.53;3610791;39;20055;-67
2023/03/21 02:32:11;;;;;;;13.65;6.80;;;;;;;10.97;78.12;101279.09;3608931;39;20054;-67
2023/03/21 02:35:27;;;;;;;13.52;6.97;;;;;;;10.95;77.19;101277.47;3613818;39;20051;-68
2023/03/21 02:38:02;;;;;;;13.25;6.95;;;;;;;10.92;77.38;101279.34;3605562;39;20402;-67
2023/03/21 02:40:38;;;;;;;13.57;7.22;;;;;;;10.90;77.78;101275.88;3611715;39;20058;-67
2023/03/21 02:43:20;;;;;;;13.52;7.35;;;;;;;10.88;77.59;101271.56;3607330;39;20267;-67
2023/03/21 02:46:02;;;;;;;12.98;7.03;;;;;;;10.91;77.17;101269.56;3609225;39;20055;-67
2023/03/21 02:49:11;;;;;;;10.40;7.18;;;;;;;10.89;77.77;101268.78;3606084;39;20055;-68
2023/03/21 02:51:42;;;;;;;14.20;7.32;;;;;;;10.91;77.61;101266.88;3606565;39;20054;-68
2023/03/21 02:54:21;;;;;;;16.30;7.43;;;;;;;10.87;77.40;101265.28;3607082;39;20325;-68
2023/03/21 02:56:52;;;;;;;12.68;7.70;;;;;;;10.91;77.92;101261.50;3607327;39;20061;-68
2023/03/21 02:59:22;;;;;;;14.32;7.15;;;;;;;10.91;77.98;101261.50;3607623;39;20059;-67
2023/03/21 03:01:51;;;;;;;12.93;7.15;;;;;;;10.82;77.71;101245.88;3607199;39;20385;-67
2023/03/21 03:04:26;;;;;;;12.15;7.35;;;;;;;10.79;78.06;101232.59;3609593;39;20055;-67
2023/03/21 03:06:57;;;;;;;12.73;7.28;;;;;;;10.93;77.42;101253.31;3612814;39;20050;-68
2023/03/21 03:09:26;;;;;;;13.15;7.07;;;;;;;10.92;77.94;101251.59;3605578;39;20067;-67
2023/03/21 03:12:21;;;;;;;11.23;7.22;;;;;;;10.92;77.87;101252.47;3608247;39;20104;-68
2023/03/21 03:15:10;;;;;;;14.55;7.50;;;;;;;10.91;78.86;101249.88;3611606;39;20055;-67
2023/03/21 03:18:06;;;;;;;14.95;7.93;;;;;;;10.87;78.85;101249.16;3609320;39;20053;-67
2023/03/21 03:20:51;;;;;;;11.90;7.40;;;;;;;10.85;78.92;101243.00;3601952;39;20079;-68
2023/03/21 03:23:34;;;;;;;15.38;7.50;;;;;;;10.83;78.67;101246.72;3608604;39;20066;-68
2023/03/21 03:26:23;;;;;;;13.82;7.60;;;;;;;10.82;79.17;101245.00;3604572;39;20058;-68
2023/03/21 03:28:56;;;;;;;16.02;8.32;;;;;;;10.71;79.02;101220.53;3608139;39;20051;-68
2023/03/21 03:31:33;;;;;;;13.23;7.43;;;;;;;10.77;79.29;101229.13;3608686;39;20067;-68
2023/03/21 03:34:19;;;;;;;17.08;7.85;;;;;;;10.77;79.36;101233.63;3608759;39;20071;-68
2023/03/21 03:36:54;;;;;;;12.32;7.00;;;;;;;10.77;79.73;101231.81;3612069;39;20053;-68
2023/03/21 03:39:32;;;;;;;12.43;7.72;;;;;;;10.45;79.09;101183.38;3609822;39;20095;-68
2023/03/21 03:42:18;;;;;;;14.05;7.55;;;;;;;10.77;78.89;101237.19;3602719;39;20057;-68
2023/03/21 03:44:44;;;;;;;15.80;7.25;;;;;;;10.78;79.44;101241.59;3609361;39;20051;-68
2023/03/21 03:47:25;;;;;;;13.43;7.32;;;;;;;10.53;79.35;101191.03;3609995;39;20160;-69
2023/03/21 03:50:23;;;;;;;17.60;8.10;;;;;;;10.76;79.54;101222.00;3608336;39;20051;-68
2023/03/21 03:53:05;;;;;;;14.35;8.02;;;;;;;10.75;79.79;101222.09;3608353;39;20066;-68
2023/03/21 03:55:33;;;;;;;12.88;7.70;;;;;;;10.73;79.62;101219.50;3610697;39;20048;-67
2023/03/21 03:58:00;;;;;;;14.63;8.05;;;;;;;10.48;79.89;101181.50;3609523;39;20077;-66
2023/03/21 04:00:31;;;;;;;13.77;7.68;;;;;;;10.71;79.76;101217.84;3613732;39;20085;-67
2023/03/21 04:02:58;;;;;;;16.35;8.15;;;;;;;10.71;80.18;101221.38;3609876;39;20051;-67
2023/03/21 04:05:25;;;;;;;14.23;8.32;;;;;;;10.71;79.76;101221.38;3609164;39;20071;-67
2023/03/21 04:07:52;;;;;;;13.43;7.60;;;;;;;10.69;79.82;101212.56;3606525;39;20047;-67
2023/03/21 04:10:20;;;;;;;17.45;9.00;;;;;;;10.71;79.28;101209.78;3607907;39;20373;-67
2023/03/21 04:12:45;;;;;;;15.00;7.90;;;;;;;10.69;79.55;101208.03;3611316;39;20063;-68
2023/03/21 04:15:11;;;;;;;12.85;8.30;;;;;;;10.70;79.75;101211.59;3614119;39;20061;-66
2023/03/21 04:17:38;;;;;;;16.90;8.15;;;;;;;10.71;79.03;101207.94;3608457;39;20419;-66
2023/03/21 04:20:06;;;;;;;14.00;8.20;;;;;;;10.71;78.82;101205.25;3611309;39;20112;-66
2023/03/21 04:22:33;;;;;;;13.18;7.78;;;;;;;10.70;78.64;101208.91;3610564;39;20405;-66
2023/03/21 04:25:00;;;;;;;15.32;7.65;;;;;;;10.70;79.03;101203.53;3609003;39;20053;-66
2023/03/21 04:27:27;;;;;;;18.35;7.97;;;;;;;10.72;78.92;101204.31;3608419;39;20065;-65
2023/03/21 04:29:52;;;;;;;19.55;8.43;;;;;;;10.73;78.87;101203.34;3610384;39;20242;-66
2023/03/21 04:32:18;;;;;;;14.30;8.00;;;;;;;10.74;79.21;101201.53;3610992;39;20070;-66
2023/03/21 04:34:48;;;;;;;14.13;8.25;;;;;;;10.62;78.77;101179.75;3607715;39;20125;-66
2023/03/21 04:37:18;;;;;;;16.42;7.75;;;;;;;10.73;78.36;101189.91;3608150;39;20042;-67
2023/03/21 04:39:46;;;;;;;13.63;7.75;;;;;;;10.60;78.36;101170.06;3608860;39;20392;-66
2023/03/21 04:42:13;;;;;;;15.95;7.90;;;;;;;10.71;78.48;101186.44;3609325;39;20493;-66
2023/03/21 04:44:40;;;;;;;16.52;8.38;;;;;;;10.75;78.53;101188.03;3608642;39;20053;-65
2023/03/21 04:47:06;;;;;;;16.52;7.72;;;;;;;10.52;78.25;101148.09;3609197;39;20055;-65
2023/03/21 04:49:32;;;;;;;17.17;8.05;;;;;;;10.77;77.80;101183.41;3607600;39;20054;-65
2023/03/21 04:51:58;;;;;;;11.07;7.38;;;;;;;10.69;78.32;101173.09;3609460;39;20070;-65
2023/03/21 04:54:23;;;;;;;15.52;8.00;;;;;;;10.77;78.11;101174.47;3607900;39;20328;-66
2023/03/21 04:56:51;;;;;;;15.40;7.30;;;;;;;10.78;77.96;101171.69;3606248;39;20077;-66
2023/03/21 04:59:18;;;;;;;14.68;7.15;;;;;;;10.60;77.58;101145.88;3609553;39;20317;-66
2023/03/21 05:01:44;;;;;;;15.70;8.18;;;;;;;10.81;77.60;101174.19;3613144;39;20123;-66
2023/03/21 05:04:13;;;;;;;13.95;7.45;;;;;;;10.83;77.29;101171.44;3610095;39;20069;-66
2023/03/21 05:06:43;;;;;;;13.07;7.07;;;;;;;10.81;77.41;101166.13;3608286;39;20053;-66
2023/03/21 05:09:09;;;;;;;10.95;6.80;;;;;;;10.84;77.08;101170.47;3609060;39;20120;-66
2023/03/21 05:11:39;;;;;;;13.52;7.75;;;;;;;10.84;77.43;101175.84;3606484;39;20063;-66
2023/03/21 05:14:13;;;;;;;17.83;7.80;;;;;;;10.82;77.84;101162.50;3609386;39;20043;-66
2023/03/21 05:16:43;;;;;;;15.68;7.70;;;;;;;10.83;77.74;101166.91;3608500;39;20054;-66
2023/03/21 05:19:12;;;;;;;15.10;7.38;;;;;;;10.82;77.30;101165.19;3605610;39;20054;-66
2023/03/21 05:21:42;;;;;;;16.08;6.90;;;;;;;10.77;77.43;101161.88;3608955;39;20069;-66
2023/03/21 05:24:16;;;;;;;11.27;7.07;;;;;;;10.82;76.93;101165.19;3610727;39;20066;-66
2023/03/21 05:26:49;;;;;;;16.33;8.30;;;;;;;10.82;77.18;101164.34;3608543;39;20167;-66
2023/03/21 05:29:17;;;;;;;12.45;7.20;;;;;;;10.81;77.66;101158.06;3610177;39;20043;-66
2023/03/21 05:31:44;;;;;;;17.90;7.32;;;;;;;10.80;77.41;101166.22;3611461;39;20059;-66
2023/03/21 05:34:12;;;;;;;14.05;6.95;;;;;;;10.84;77.33;101165.09;3611858;39;20062;-66
2023/03/21 05:36:38;;;;;;;14.98;7.75;;;;;;;10.85;77.06;101161.47;3612222;39;20058;-66
2023/03/21 05:39:05;;;;;;;14.02;7.25;;;;;;;10.77;77.32;101153.81;3610792;39;20091;-66
2023/03/21 05:41:31;;;;;;;15.50;7.05;;;;;;;10.85;77.07;101164.16;3609940;39;20118;-66
2023/03/21 05:43:57;;;;;;;18.52;7.30;;;;;;;10.86;77.02;101161.38;3608753;39;20400;-66
2023/03/21 05:46:22;;;;;;;12.48;6.90;;;;;;;10.86;77.28;101164.06;3607244;39;20130;-66
2023/03/21 05:48:48;;;;;;;10.80;7.13;;;;;;;10.87;77.30;101162.22;3607688;39;20062;-66
2023/03/21 05:51:14;;;;;;;14.07;6.82;;;;;;;10.65;77.17;101119.56;3604015;39;20062;-66
2023/03/21 05:53:39;;;;;;;14.93;7.53;;;;;;;10.89;77.03;101166.56;3606281;39;20055;-66
2023/03/21 05:56:07;;;;;;;13.90;7.40;;;;;;;10.91;76.61;101169.19;3609644;39;20295;-66
2023/03/21 05:58:32;;;;;;;12.00;6.60;;;;;;;10.89;77.04;101160.31;3599235;39;20376;-66
2023/03/21 06:00:58;;;;;;;14.18;6.93;;;;;;;10.89;76.71;101161.19;3606390;39;20058;-66
2023/03/21 06:03:24;;;;;;;13.18;7.20;;;;;;;10.90;76.83;101162.91;3606139;39;20333;-66
2023/03/21 06:05:49;;;;;;;14.07;6.85;;;;;;;10.90;76.86;101154.84;3604828;39;20107;-66
2023/03/21 06:08:15;;;;;;;14.48;6.80;;;;;;;10.92;76.81;101161.00;3607225;39;20054;-69
2023/03/21 06:10:41;;;;;;;12.40;6.78;;;;;;;10.86;76.66;101145.22;3605968;39;20420;-68
2023/03/21 06:13:06;;;;;;;13.63;6.45;;;;;;;10.95;76.64;101161.81;3613819;39;20069;-68
2023/03/21 06:15:32;;;;;;;15.70;6.80;;;;;;;10.97;76.47;101162.56;3599657;39;20047;-68
2023/03/21 06:17:58;;;;;;;10.75;6.18;;;;;;;10.67;76.20;101112.28;3609207;39;20050;-68
2023/03/21 06:20:24;;;;;;;16.48;6.40;;;;;;;10.99;76.12;101161.50;3607856;39;20424;-71
2023/03/21 06:22:49;;;;;;;13.48;6.90;;;;;;;11.02;76.84;101171.25;3596589;39;20047;-69
2023/03/21 06:25:15;;;;;;;11.88;6.20;;;;;;;11.05;76.59;101171.06;3607490;39;20095;-68
2023/03/21 06:27:41;;;;;;;9.82;5.80;;;;;;;10.83;76.23;101134.66;3607809;39;20059;-70
2023/03/21 06:30:08;;;;;;;13.32;6.50;;;;;;;11.11;76.36;101176.09;3609216;39;20151;-72
2023/03/21 06:32:34;;;;;;;11.15;5.55;;;;;;;10.85;76.04;101126.50;3606211;39;20405;-68
2023/03/21 06:34:59;;;;;;;16.33;5.95;;;;;;;11.18;76.06;101176.59;3602429;39;20240;-69
2023/03/21 06:37:26;;;;;;;15.60;6.68;;;;;;;11.07;76.17;101161.09;3608563;39;20059;-69
2023/03/21 06:39:52;;;;;;;13.15;5.97;;;;;;;11.13;76.69;101168.78;3607089;39;20120;-68
2023/03/21 06:42:17;;;;;;;14.50;6.20;;;;;;;11.22;76.61;101179.00;3609355;39;20038;-68
2023/03/21 06:44:43;;;;;;;15.82;6.65;;;;;;;11.23;76.63;101183.44;3607049;39;20195;-68
2023/03/21 06:47:09;;;;;;;15.02;6.05;;;;;;;11.21;77.33;101188.03;3605685;39;20070;-67
2023/03/21 06:49:34;;;;;;;13.57;6.65;;;;;;;11.19;77.34;101179.19;3607560;39;20047;-66
2023/03/21 06:52:00;;;;;;;16.40;5.40;;;;;;;11.19;78.02;101179.19;3611636;39;20046;-64
2023/03/21 06:54:25;;;;;;;11.98;6.22;;;;;;;11.16;77.79;101173.97;3613869;39;20066;-64
2023/03/21 06:56:53;;;;;;;11.57;5.97;;;;;;;11.15;78.82;101183.00;3608270;39;20056;-64
2023/03/21 06:59:18;;;;;;;10.98;5.28;;;;;;;11.11;78.74;101178.78;3608518;39;20046;-64
2023/03/21 07:01:44;;;;;;;11.65;5.80;;;;;;;11.10;79.03;101183.28;3604889;39;20151;-64
2023/03/21 07:04:10;;;;;;;15.32;6.43;;;;;;;11.10;80.25;101182.41;3606919;39;20047;-64
2023/03/21 07:06:37;;;;;;;14.65;6.65;;;;;;;11.06;80.75;101183.53;3610224;39;20061;-64
2023/03/21 07:09:04;;;;;;;17.35;6.63;;;;;;;11.06;80.15;101186.25;3613987;39;20099;-64
2023/03/21 07:11:31;;;;;;;11.45;6.30;;;;;;;10.87;80.64;101151.47;3612795;39;20062;-62
2023/03/21 07:13:57;;;;;;;14.77;5.97;;;;;;;11.06;81.22;101188.94;3609121;39;20057;-62
2023/03/21 07:16:23;;;;;;;13.20;6.03;;;;;;;11.08;81.42;101190.56;3609402;39;20065;-62
2023/03/21 07:18:50;;;;;;;12.10;6.25;;;;;;;10.99;81.38;101171.41;3613020;39;20575;-62
2023/03/21 07:21:17;;;;;;;13.05;6.25;;;;;;;11.10;81.07;101195.84;3606881;39;20055;-63
2023/03/21 07:23:42;;;;;;;13.63;5.68;;;;;;;11.12;81.54;101193.94;3608856;39;20338;-64
2023/03/21 07:26:08;;;;;;;16.25;6.05;;;;;;;11.11;80.69;101197.59;3607441;39;20348;-63
2023/03/21 07:28:34;;;;;;;13.43;6.05;;;;;;;11.10;81.51;101202.13;3606964;39;20058;-63
2023/03/21 07:31:05;;;;;;;17.40;6.72;;;;;;;11.11;82.01;101203.00;3607393;39;20070;-63
2023/03/21 07:33:32;;;;;;;11.73;6.47;;;;;;;11.13;81.40;101206.44;3607935;39;20051;-62
2023/03/21 07:36:00;;;;;;;13.15;7.03;;;;;;;11.08;82.39;101203.16;3610964;39;20624;-63
2023/03/21 07:38:26;;;;;;;14.93;7.22;;;;;;;11.07;82.17;101196.06;3609584;39;20338;-63
2023/03/21 07:40:52;;;;;;;16.50;7.45;;;;;;;11.06;82.59;101194.31;3607662;39;20043;-67
2023/03/21 07:43:19;;;;;;;16.48;7.45;;;;;;;11.04;82.62;101191.72;3607738;39;20131;-63
2023/03/21 07:45:45;;;;;;;15.32;8.02;;;;;;;11.04;83.22;101196.25;3610736;39;20412;-63
2023/03/21 07:48:12;;;;;;;16.17;8.13;;;;;;;11.01;83.76;101182.97;3610182;39;20047;-63
2023/03/21 07:50:40;;;;;;;19.73;8.93;;;;;;;10.99;84.55;101187.56;3607241;39;20090;-63
2023/03/21 07:53:06;;;;;;;15.30;8.50;;;;;;;10.99;84.79;101182.19;3609873;39;20055;-62
2023/03/21 07:55:34;;;;;;;16.77;9.27;;;;;;;10.99;84.73;101177.66;3606527;39;20062;-63
2023/03/21 07:58:02;;;;;;;15.15;8.05;;;;;;;10.77;84.47;101135.00;3600116;39;20043;-66
2023/03/21 08:00:27;;;;;;;17.55;8.25;;;;;;;11.01;84.29;101169.50;3608339;39;20063;-64
2023/03/21 08:02:55;;;;;;;15.40;8.77;;;;;;;10.85;84.69;101129.19;3609102;39;20112;-63
2023/03/21 08:05:25;;;;;;;15.85;8.60;;;;;;;11.09;85.04;101169.91;3608684;39;20066;-64
2023/03/21 08:07:51;;;;;;;17.35;8.70;;;;;;;10.22;84.51;101006.47;3598668;39;20057;-64
2023/03/21 08:10:18;;;;;;;17.48;8.60;;;;;;;11.16;84.05;101155.13;3610329;39;20063;-65
2023/03/21 08:12:44;;;;;;;18.55;8.73;;;;;;;11.22;84.30;101153.91;3607737;39;20127;-65
2023/03/21 08:15:12;;;;;;;18.02;9.00;;;;;;;11.21;84.56;101144.97;3609415;39;20063;-65
2023/03/21 08:17:39;;;;;;;18.73;9.00;;;;;;;11.30;84.73;101151.66;3608379;39;20055;-65
2023/03/21 08:20:10;;;;;;;14.52;8.57;;;;;;;11.32;84.50;101147.91;3608941;39;20087;-65
2023/03/21 08:22:37;;;;;;;13.85;8.38;;;;;;;11.34;83.49;101139.72;3610342;39;20123;-66
2023/03/21 08:25:07;;;;;;;14.85;8.63;;;;;;;11.36;84.08;101143.22;3613903;39;20058;-67
2023/03/21 08:27:34;;;;;;;16.40;8.23;;;;;;;11.30;83.43;101128.28;3612968;39;20056;-68
2023/03/21 08:30:00;;;;;;;17.88;8.38;;;;;;;11.34;82.44;101129.81;3608050;39;20123;-68
2023/03/21 08:32:29;;;;;;;13.60;7.55;;;;;;;11.36;83.25;101124.38;3597911;39;20063;-68
2023/03/21 08:35:02;;;;;;;11.80;6.93;;;;;;;11.32;81.81;101130.88;3605403;39;20054;-69
2023/03/21 08:37:28;;;;;;;11.57;6.78;;;;;;;11.32;81.31;101136.25;3607256;39;20055;-69
2023/03/21 08:39:54;;;;;;;12.23;6.70;;;;;;;11.31;81.24;101135.41;3609857;39;20046;-68
2023/03/21 08:42:21;;;;;;;9.68;6.82;;;;;;;11.29;81.58;101134.63;3610343;39;20059;-69
2023/03/21 08:44:47;;;;;;;59.10;35.72;;;;;;;11.34;81.41;101127.13;3598755;39;20059;-69
2023/03/21 08:47:14;;;;;;;14.75;7.30;;;;;;;11.38;80.73;101134.09;3598189;39;20101;-69
2023/03/21 08:49:41;;;;;;;14.35;6.30;;;;;;;11.33;80.55;101111.09;3594615;39;20055;-69
2023/03/21 08:52:06;;;;;;;13.70;6.85;;;;;;;11.47;80.96;101126.41;3592684;39;20061;-69
2023/03/21 08:54:32;;;;;;;10.73;6.63;;;;;;;11.35;81.18;101104.66;3603550;39;20309;-69
2023/03/21 08:56:58;;;;;;;13.57;6.85;;;;;;;11.51;80.52;101125.25;3609117;39;20069;-69
2023/03/21 08:59:24;;;;;;;10.75;6.80;;;;;;;11.54;80.82;101125.06;3608712;39;20053;-68
2023/03/21 09:01:49;;;;;;;12.15;6.57;;;;;;;11.58;81.10;101121.25;3607295;39;20127;-69
2023/03/21 09:04:17;;;;;;;14.70;7.53;;;;;;;11.62;81.25;101109.31;3604834;39;20891;-69
2023/03/21 09:06:47;;;;;;;13.95;6.38;;;;;;;11.65;80.60;101114.50;3605275;39;20066;-69
2023/03/21 09:09:15;;;;;;;15.00;6.68;;;;;;;11.70;80.93;101114.22;3600123;39;20483;-70
2023/03/21 09:11:41;;;;;;;11.75;6.72;;;;;;;11.73;80.79;101114.88;3605452;39;20046;-71
2023/03/21 09:14:08;;;;;;;11.50;6.90;;;;;;;11.77;80.70;101110.19;3610135;39;20330;-71
2023/03/21 09:16:34;;;;;;;11.95;6.18;;;;;;;11.78;80.68;101117.31;3605900;39;20050;-71
2023/03/21 09:19:03;;;;;;;12.65;6.38;;;;;;;11.58;80.13;101075.47;3609379;39;20424;-70
2023/03/21 09:21:30;;;;;;;10.32;6.43;;;;;;;11.70;79.63;101107.00;3610086;39;20047;-70
2023/03/21 09:23:58;;;;;;;8.82;5.45;;;;;;;11.71;79.34;101105.19;3610651;39;20316;-70
2023/03/21 09:26:26;;;;;;;12.32;6.47;;;;;;;11.82;79.08;101102.69;3605557;39;20057;-70
2023/03/21 09:28:53;;;;;;;9.55;5.65;;;;;;;11.85;78.99;101103.38;3608081;39;20461;-69
2023/03/21 09:31:21;;;;;;;11.60;6.38;;;;;;;11.88;78.71;101106.84;3608839;39;20070;-69
2023/03/21 09:33:49;;;;;;;12.30;5.85;;;;;;;11.72;79.02;101070.06;3604096;39;20450;-69
2023/03/21 09:36:17;;;;;;;14.60;6.10;;;;;;;11.93;78.90;101093.97;3597416;39;20057;-69
2023/03/21 09:38:45;;;;;;;15.38;5.88;;;;;;;11.94;78.13;101095.69;3605981;39;20107;-69
2023/03/21 09:41:47;;;;;;;13.35;5.70;;;;;;;11.98;78.41;101092.69;3608914;39;20058;-69
2023/03/21 09:45:07;;;;;;;8.50;4.90;;;;;;;11.99;77.54;101090.91;3606365;39;20403;-68
2023/03/21 09:47:55;;;;;;;9.27;5.03;;;;;;;11.77;77.43;101051.81;3607332;39;20054;-68
2023/03/21 09:50:37;;;;;;;10.77;6.28;;;;;;;12.08;77.03;101082.19;3607702;39;20055;-68
2023/03/21 09:53:22;;;;;;;11.85;4.47;;;;;;;12.11;77.31;101081.13;3606137;39;20055;-69
2023/03/21 09:55:48;;;;;;;10.85;6.18;;;;;;;12.22;77.22;101078.63;3610969;39;20091;-69
2023/03/21 09:58:32;;;;;;;8.98;5.70;;;;;;;12.28;76.23;101075.53;3606727;39;20442;-69
2023/03/21 10:01:32;;;;;;;7.78;4.88;;;;;;;12.27;76.13;101055.81;3604507;39;20055;-69
2023/03/21 10:04:04;;;;;;;10.60;4.97;;;;;;;12.22;76.26;101030.97;3605662;39;20403;-68
2023/03/21 10:06:31;;;;;;;11.15;5.07;;;;;;;12.51;75.91;101069.50;3606910;39;20309;-69
2023/03/21 10:09:06;;;;;;;9.43;4.63;;;;;;;12.57;75.62;101060.13;3608603;39;20051;-68
2023/03/21 10:11:59;;;;;;;7.93;4.50;;;;;;;12.51;75.02;101047.06;3606808;39;20053;-68
2023/03/21 10:14:38;;;;;;;13.80;5.10;;;;;;;12.70;75.42;101058.34;3607575;39;20128;-68
2023/03/21 10:17:42;;;;;;;10.32;4.85;;;;;;;12.79;74.88;101062.28;3609395;39;20050;-68
2023/03/21 10:20:20;;;;;;;13.18;6.97;;;;;;;12.90;74.80;101051.59;3602516;39;20369;-68
2023/03/21 10:22:50;;;;;;;8.13;4.68;;;;;;;12.98;73.89;101045.69;3605216;39;20069;-68
2023/03/21 10:25:25;;;;;;;10.70;4.82;;;;;;;13.01;73.58;101056.28;3605652;39;20093;-68
2023/03/21 10:27:51;;;;;;;8.82;3.80;;;;;;;13.07;72.25;101052.31;3608184;39;20063;-68
2023/03/21 10:30:43;;;;;;;8.60;4.57;;;;;;;13.16;73.22;101055.22;3608509;39;20321;-68
2023/03/21 10:33:44;;;;;;;9.18;4.20;;;;;;;13.20;71.37;101051.34;3607196;39;20066;-68
2023/03/21 10:36:19;;;;;;;9.95;4.05;;;;;;;12.93;70.99;100988.47;3595624;39;20404;-68
2023/03/21 10:38:51;;;;;;;5.85;4.10;;;;;;;13.22;71.03;101016.13;3608380;39;20070;-68
2023/03/21 10:41:17;;;;;;;7.53;4.20;;;;;;;13.43;70.16;101057.00;3606809;39;20051;-68
2023/03/21 10:43:44;;;;;;;11.35;4.72;;;;;;;13.48;69.73;101049.47;3610473;39;20055;-68
2023/03/21 10:46:16;;;;;;;9.23;4.35;;;;;;;13.58;70.32;101052.38;3608409;39;20058;-68
2023/03/21 10:48:46;;;;;;;11.20;4.10;;;;;;;13.61;69.34;101036.81;3608061;39;20067;-68
2023/03/21 10:51:21;;;;;;;9.55;4.20;;;;;;;13.63;68.12;101048.34;3598905;39;20101;-68
2023/03/21 10:54:07;;;;;;;7.85;4.05;;;;;;;13.74;68.29;101057.53;3609839;39;20052;-68
2023/03/21 10:56:44;;;;;;;9.90;4.15;;;;;;;13.84;69.59;101053.19;3607902;39;20370;-68
2023/03/21 10:59:21;;;;;;;7.75;3.83;;;;;;;14.04;69.23;101051.75;3605691;39;20394;-69
2023/03/21 11:01:55;;;;;;;6.22;4.00;;;;;;;14.27;67.93;101052.75;3606874;39;20120;-68
2023/03/21 11:04:28;;;;;;;8.90;4.07;;;;;;;14.45;66.90;101040.59;3605892;39;20313;-68
2023/03/21 11:07:08;;;;;;;8.70;3.97;;;;;;;14.43;65.27;101041.66;3607175;39;20386;-69
2023/03/21 11:09:49;;;;;;;9.00;3.65;;;;;;;14.48;65.53;101051.19;3605698;39;20346;-68
2023/03/21 11:12:36;;;;;;;7.43;3.90;;;;;;;14.50;64.83;101042.97;3608220;39;20048;-68
2023/03/21 11:15:47;;;;;;;8.25;3.60;;;;;;;14.50;63.99;101059.19;3611252;39;20320;-68
2023/03/21 11:18:20;;;;;;;9.57;3.85;;;;;;;14.47;63.38;101049.47;3609788;39;20049;-68
2023/03/21 11:20:55;;;;;;;8.57;3.55;;;;;;;14.36;62.89;101036.72;3613673;39;20554;-68
2023/03/21 11:23:28;;;;;;;9.27;3.50;;;;;;;14.42;63.20;101046.22;3607735;39;20352;-68
2023/03/21 11:25:57;;;;;;;7.18;3.38;;;;;;;14.46;63.45;101063.97;3603555;39;20051;-68
2023/03/21 11:28:32;;;;;;;10.02;3.40;;;;;;;14.40;61.81;101037.38;3601714;39;20054;-68
2023/03/21 11:31:02;;;;;;;4.55;3.20;;;;;;;14.44;62.34;101049.69;3607018;39;20128;-68
2023/03/21 11:33:39;;;;;;;9.95;4.45;;;;;;;14.32;62.29;101020.84;3605508;39;20054;-68
2023/03/21 11:36:32;;;;;;;8.20;4.50;;;;;;;14.59;61.93;101037.75;3607580;39;20050;-68
2023/03/21 11:39:38;;;;;;;6.20;3.20;;;;;;;14.60;60.52;101034.06;3607388;39;20289;-68
2023/03/21 11:42:24;;;;;;;7.60;3.33;;;;;;;14.63;60.13;101031.13;3603373;39;20059;-68
2023/03/21 11:45:01;;;;;;;12.18;3.63;;;;;;;14.68;59.34;101046.13;3609166;39;20132;-68